Time;durP1;ratioP1;P1;durP2;ratioP2;P2;SDS_P1;SDS_P2;PMS_P1;PMS_P2;Temp;Humidity;BMP_temperature;BMP_pressure;BME280_temperature;BME280_humidity;BME280_pressure;Samples;Min_cycle;Max_cycle;Signal;HPM_P1;HPM_P2
2023/03/13 00:00:55;;;;;;;;;;;6.60;77.70;;;;;;5072283;28;19970;-90
2023/03/13 00:03:21;;;;;;;;;;;6.60;77.20;;;;;;5071936;28;20076;-91
2023/03/13 00:05:47;;;;;;;;;;;6.60;76.60;;;;;;5074608;28;19993;-91
2023/03/13 00:08:12;;;;;;;;;;;6.70;76.80;;;;;;5075750;28;19952;-90
2023/03/13 00:10:38;;;;;;;;;;;6.60;76.80;;;;;;5074667;28;19938;-91
2023/03/13 00:13:04;;;;;;;;;;;6.50;77.50;;;;;;5074622;28;19972;-91
2023/03/13 00:15:29;;;;;;;;;;;6.60;77.90;;;;;;5074588;28;19946;-90
2023/03/13 00:17:55;;;;;;;;;;;6.60;77.90;;;;;;5074539;28;19985;-91
2023/03/13 00:20:20;;;;;;;;;;;6.50;78.00;;;;;;5074563;28;20039;-90
2023/03/13 00:22:46;;;;;;;;;;;6.50;78.20;;;;;;5074558;28;20278;-90
2023/03/13 00:25:11;;;;;;;;;;;6.50;78.80;;;;;;5074752;28;20358;-90
2023/03/13 00:27:37;;;;;;;;;;;6.50;78.10;;;;;;5074370;28;19942;-91
2023/03/13 00:30:03;;;;;;;;;;;6.60;77.40;;;;;;5074405;28;19943;-90
2023/03/13 00:32:28;;;;;;;;;;;6.50;77.30;;;;;;5074633;28;19950;-91
2023/03/13 00:34:54;;;;;;;;;;;6.50;77.20;;;;;;5056881;28;20351;-90
2023/03/13 00:37:19;;;;;;;;;;;6.40;77.50;;;;;;5074266;28;19976;-90
2023/03/13 00:39:45;;;;;;;;;;;6.40;77.90;;;;;;5074231;28;20033;-91
2023/03/13 00:42:10;;;;;;;;;;;6.40;78.00;;;;;;5074676;28;19970;-91
2023/03/13 00:44:36;;;;;;;;;;;6.40;78.50;;;;;;5074026;28;20466;-91
2023/03/13 00:47:01;;;;;;;;;;;6.40;78.50;;;;;;5089701;28;19944;-91
2023/03/13 00:49:27;;;;;;;;;;;6.40;79.50;;;;;;5074064;28;19939;-91
2023/03/13 00:51:52;;;;;;;;;;;6.30;79.30;;;;;;5074040;28;20035;-91
2023/03/13 00:54:18;;;;;;;;;;;6.30;79.80;;;;;;5073894;28;20437;-90
2023/03/13 00:56:43;;;;;;;;;;;6.30;79.70;;;;;;5073964;28;20392;-90
2023/03/13 00:59:09;;;;;;;;;;;6.20;80.00;;;;;;5073952;28;19940;-90
2023/03/13 01:01:35;;;;;;;;;;;6.30;79.50;;;;;;5073768;28;19949;-90
2023/03/13 01:04:02;;;;;;;;;;;6.20;78.00;;;;;;5011644;28;1983885;-91
2023/03/13 01:06:29;;;;;;;;;;;6.10;76.70;;;;;;5075069;28;19946;-91
2023/03/13 01:08:55;;;;;;;;;;;6.10;77.20;;;;;;5074714;28;19945;-90
2023/03/13 01:11:22;;;;;;;;;;;5.90;76.90;;;;;;5074689;28;19941;-91
2023/03/13 01:13:48;;;;;;;;;;;5.50;78.20;;;;;;5074592;28;19939;-90
2023/03/13 01:16:18;;;;;;;;;;;5.40;79.10;;;;;;5073844;28;19957;-91
2023/03/13 01:18:45;;;;;;;;;;;5.50;79.90;;;;;;5074532;28;19943;-91
2023/03/13 01:21:11;;;;;;;;;;;5.40;80.30;;;;;;5074819;28;20029;-90
2023/03/13 01:23:37;;;;;;;;;;;5.40;81.60;;;;;;5074603;28;19979;-90
2023/03/13 01:26:06;;;;;;;;;;;5.50;82.10;;;;;;5083209;28;20385;-90
2023/03/13 01:28:32;;;;;;;;;;;5.50;83.40;;;;;;5094630;28;20009;-90
2023/03/13 01:30:58;;;;;;;;;;;5.50;83.40;;;;;;5094771;28;19964;-90
2023/03/13 01:33:23;;;;;;;;;;;5.40;83.20;;;;;;5094521;28;20391;-90
2023/03/13 01:35:49;;;;;;;;;;;5.40;83.70;;;;;;5094501;28;19941;-90
2023/03/13 01:38:15;;;;;;;;;;;5.40;84.00;;;;;;5094344;28;19946;-90
2023/03/13 01:40:41;;;;;;;;;;;5.40;83.50;;;;;;5094162;28;19939;-89
2023/03/13 01:43:19;;;;;;;;;;;5.40;83.40;;;;;;5094216;28;19963;-90
2023/03/13 01:45:53;;;;;;;;;;;5.40;83.00;;;;;;5094548;28;19942;-89
2023/03/13 01:48:21;;;;;;;;;;;5.40;82.80;;;;;;5094229;28;20036;-88
2023/03/13 01:50:47;;;;;;;;;;;5.40;82.70;;;;;;5081298;28;19944;-89
2023/03/13 01:53:12;;;;;;;;;;;5.40;82.30;;;;;;5073852;28;20473;-90
2023/03/13 01:55:38;;;;;;;;;;;5.40;82.10;;;;;;5089404;28;19948;-89
2023/03/13 01:58:03;;;;;;;;;;;5.40;82.50;;;;;;5055812;28;19994;-90
2023/03/13 02:00:32;;;;;;;;;;;5.40;82.70;;;;;;5073666;28;19973;-90
2023/03/13 02:03:00;;;;;;;;;;;5.40;82.20;;;;;;5072976;28;19968;-90
2023/03/13 02:05:26;;;;;;;;;;;5.40;82.40;;;;;;5072248;28;19977;-91
2023/03/13 02:08:00;;;;;;;;;;;5.40;82.50;;;;;;5073612;28;20403;-90
2023/03/13 02:10:28;;;;;;;;;;;5.30;82.10;;;;;;5073514;28;19979;-90
2023/03/13 02:12:54;;;;;;;;;;;5.20;82.10;;;;;;5073487;28;19953;-91
2023/03/13 02:15:21;;;;;;;;;;;5.00;81.90;;;;;;5073514;28;20022;-90
2023/03/13 02:17:47;;;;;;;;;;;5.00;82.30;;;;;;5090954;28;20319;-90
2023/03/13 02:20:14;;;;;;;;;;;5.00;82.10;;;;;;5093654;28;19989;-91
2023/03/13 02:22:55;;;;;;;;;;;5.10;82.10;;;;;;5093655;28;19946;-91
2023/03/13 02:25:23;;;;;;;;;;;5.10;82.00;;;;;;5091874;28;19944;-91
2023/03/13 02:27:54;;;;;;;;;;;5.10;82.10;;;;;;5093327;28;19946;-91
2023/03/13 02:30:20;;;;;;;;;;;5.20;81.90;;;;;;5093547;28;19947;-90
2023/03/13 02:32:46;;;;;;;;;;;5.10;81.60;;;;;;5093466;28;19938;-91
2023/03/13 02:35:13;;;;;;;;;;;5.20;82.30;;;;;;5093461;28;19952;-90
2023/03/13 02:37:40;;;;;;;;;;;5.10;82.70;;;;;;5093616;28;19944;-91
2023/03/13 02:40:11;;;;;;;;;;;5.20;83.00;;;;;;5093396;28;19938;-90
2023/03/13 02:42:41;;;;;;;;;;;5.20;82.90;;;;;;5093303;28;19939;-90
2023/03/13 02:45:07;;;;;;;;;;;5.10;82.80;;;;;;5086159;28;20051;-90
2023/03/13 02:47:32;;;;;;;;;;;5.10;82.80;;;;;;5073023;28;20038;-89
2023/03/13 02:49:58;;;;;;;;;;;5.10;82.80;;;;;;5073059;28;19943;-90
2023/03/13 02:52:26;;;;;;;;;;;5.00;82.60;;;;;;5072985;28;19956;-90
2023/03/13 02:54:54;;;;;;;;;;;4.90;82.50;;;;;;5072979;28;19943;-90
2023/03/13 02:57:20;;;;;;;;;;;4.80;82.90;;;;;;5072994;28;19993;-90
2023/03/13 02:59:46;;;;;;;;;;;4.90;83.40;;;;;;5072929;28;19983;-90
2023/03/13 03:02:11;;;;;;;;;;;5.00;83.50;;;;;;5072892;28;19939;-90
2023/03/13 03:04:37;;;;;;;;;;;5.00;83.80;;;;;;5072726;28;19976;-89
2023/03/13 03:07:02;;;;;;;;;;;4.90;83.90;;;;;;5086400;28;20337;-89
2023/03/13 03:09:28;;;;;;;;;;;4.90;83.90;;;;;;5093042;28;20029;-89
2023/03/13 03:11:53;;;;;;;;;;;4.90;83.80;;;;;;5074935;28;19945;-89
2023/03/13 03:14:19;;;;;;;;;;;4.90;84.20;;;;;;5093230;28;19953;-89
2023/03/13 03:16:45;;;;;;;;;;;5.00;84.70;;;;;;5093003;28;19986;-89
2023/03/13 03:19:10;;;;;;;;;;;5.00;84.40;;;;;;5093024;28;20412;-89
2023/03/13 03:21:36;;;;;;;;;;;5.10;83.40;;;;;;5093216;28;19946;-89
2023/03/13 03:24:02;;;;;;;;;;;5.10;83.20;;;;;;5093086;28;20014;-90
2023/03/13 03:26:28;;;;;;;;;;;5.20;82.90;;;;;;5093151;28;19946;-90
2023/03/13 03:28:53;;;;;;;;;;;5.30;83.90;;;;;;5092903;28;19944;-90
2023/03/13 03:31:19;;;;;;;;;;;5.40;83.60;;;;;;5092924;28;19945;-90
2023/03/13 03:33:45;;;;;;;;;;;5.40;83.40;;;;;;5092788;28;20314;-90
2023/03/13 03:36:12;;;;;;;;;;;5.50;83.90;;;;;;5074398;28;20417;-89
2023/03/13 03:38:38;;;;;;;;;;;5.40;84.20;;;;;;5072875;28;20106;-89
2023/03/13 03:41:04;;;;;;;;;;;5.40;84.10;;;;;;5076615;28;19946;-90
2023/03/13 03:43:30;;;;;;;;;;;5.40;83.80;;;;;;5076261;28;19984;-90
2023/03/13 03:45:56;;;;;;;;;;;5.40;83.60;;;;;;5076318;28;20402;-89
2023/03/13 03:48:21;;;;;;;;;;;5.40;83.50;;;;;;5076271;28;20405;-89
2023/03/13 03:50:47;;;;;;;;;;;5.40;83.60;;;;;;5076159;28;19940;-90
2023/03/13 03:53:12;;;;;;;;;;;5.50;83.40;;;;;;5080467;28;20008;-89
2023/03/13 03:55:38;;;;;;;;;;;5.50;83.00;;;;;;5095563;28;19947;-89
2023/03/13 03:58:03;;;;;;;;;;;5.70;82.10;;;;;;5096162;28;19942;-90
2023/03/13 04:00:29;;;;;;;;;;;5.70;82.00;;;;;;5096203;28;20091;-89
2023/03/13 04:02:55;;;;;;;;;;;5.70;82.60;;;;;;5094198;28;19952;-90
2023/03/13 04:05:21;;;;;;;;;;;5.60;82.50;;;;;;5082134;28;20069;-91
2023/03/13 04:07:46;;;;;;;;;;;5.70;82.30;;;;;;5080283;28;19948;-90
2023/03/13 04:10:12;;;;;;;;;;;5.70;82.30;;;;;;5090977;28;20398;-90
2023/03/13 04:12:37;;;;;;;;;;;5.60;82.70;;;;;;5091188;28;19945;-90
2023/03/13 04:15:03;;;;;;;;;;;5.60;82.70;;;;;;5088428;28;19954;-90
2023/03/13 04:17:30;;;;;;;;;;;5.50;83.10;;;;;;5095932;28;19938;-90
2023/03/13 04:19:55;;;;;;;;;;;5.50;82.60;;;;;;5095896;28;19936;-90
2023/03/13 04:22:21;;;;;;;;;;;5.50;81.70;;;;;;5095953;28;19934;-90
2023/03/13 04:24:46;;;;;;;;;;;5.60;81.20;;;;;;5095792;28;19957;-90
2023/03/13 04:27:12;;;;;;;;;;;5.70;81.00;;;;;;5095845;28;19947;-89
2023/03/13 04:29:38;;;;;;;;;;;5.80;80.70;;;;;;5095791;28;19942;-90
2023/03/13 04:32:03;;;;;;;;;;;5.90;80.60;;;;;;5095709;28;19945;-90
2023/03/13 04:34:29;;;;;;;;;;;5.90;80.70;;;;;;5091591;28;19980;-91
2023/03/13 04:36:54;;;;;;;;;;;5.90;80.90;;;;;;5075418;28;20295;-90
2023/03/13 04:39:24;;;;;;;;;;;5.90;80.70;;;;;;5075308;28;20029;-90
2023/03/13 04:41:51;;;;;;;;;;;6.00;80.80;;;;;;5075293;28;19944;-90
2023/03/13 04:44:16;;;;;;;;;;;5.90;81.10;;;;;;5075425;28;19962;-90
2023/03/13 04:46:42;;;;;;;;;;;5.90;81.60;;;;;;5075184;28;20356;-89
2023/03/13 04:49:07;;;;;;;;;;;5.90;82.00;;;;;;5057259;28;20069;-90
2023/03/13 04:51:33;;;;;;;;;;;5.90;82.40;;;;;;5075046;28;19939;-90
2023/03/13 04:53:58;;;;;;;;;;;5.80;83.00;;;;;;5074990;28;19957;-89
2023/03/13 04:56:25;;;;;;;;;;;5.80;83.00;;;;;;5074964;28;19941;-90
2023/03/13 04:58:50;;;;;;;;;;;5.70;82.90;;;;;;5074934;28;19978;-90
2023/03/13 05:01:16;;;;;;;;;;;5.60;82.80;;;;;;5075097;28;20375;-90
2023/03/13 05:03:41;;;;;;;;;;;5.60;82.90;;;;;;5074471;28;20020;-90
2023/03/13 05:06:07;;;;;;;;;;;5.70;82.70;;;;;;5094354;28;19947;-89
2023/03/13 05:08:35;;;;;;;;;;;5.80;82.60;;;;;;5095052;28;19946;-90
2023/03/13 05:11:01;;;;;;;;;;;5.90;82.70;;;;;;5094864;28;19943;-90
2023/03/13 05:13:26;;;;;;;;;;;5.90;82.80;;;;;;5094941;28;19946;-89
2023/03/13 05:15:52;;;;;;;;;;;6.00;82.70;;;;;;5094801;28;20404;-89
2023/03/13 05:18:17;;;;;;;;;;;6.00;82.10;;;;;;5094862;28;19946;-89
2023/03/13 05:20:43;;;;;;;;;;;6.10;82.00;;;;;;5094825;28;20288;-90
2023/03/13 05:23:08;;;;;;;;;;;6.20;81.80;;;;;;5094675;28;20078;-90
2023/03/13 05:25:34;;;;;;;;;;;6.20;81.60;;;;;;5094635;28;20392;-89
2023/03/13 05:27:59;;;;;;;;;;;6.20;81.60;;;;;;5094688;28;20457;-90
2023/03/13 05:30:25;;;;;;;;;;;6.10;82.10;;;;;;5094569;28;20477;-90
2023/03/13 05:32:50;;;;;;;;;;;6.20;82.60;;;;;;5094754;28;19952;-89
2023/03/13 05:35:16;;;;;;;;;;;6.20;82.20;;;;;;5081746;28;19967;-90
2023/03/13 05:37:42;;;;;;;;;;;6.20;82.80;;;;;;5074419;28;19946;-90
2023/03/13 05:40:08;;;;;;;;;;;6.20;83.60;;;;;;5074160;28;20405;-90
2023/03/13 05:42:34;;;;;;;;;;;6.20;83.20;;;;;;5074034;28;19945;-89
2023/03/13 05:44:59;;;;;;;;;;;6.20;82.90;;;;;;5089595;28;20056;-89
2023/03/13 05:47:25;;;;;;;;;;;6.30;82.30;;;;;;5073997;28;19937;-89
2023/03/13 05:49:50;;;;;;;;;;;6.40;82.10;;;;;;5073933;28;20397;-89
2023/03/13 05:52:16;;;;;;;;;;;6.40;82.20;;;;;;5073795;28;20034;-89
2023/03/13 05:54:41;;;;;;;;;;;6.50;82.00;;;;;;5073817;28;19938;-89
2023/03/13 05:57:07;;;;;;;;;;;6.50;82.10;;;;;;5073745;28;20048;-89
2023/03/13 05:59:32;;;;;;;;;;;6.50;82.00;;;;;;5073721;28;19935;-89
2023/03/13 06:01:58;;;;;;;;;;;6.50;81.70;;;;;;5073098;28;19936;-89
2023/03/13 06:04:23;;;;;;;;;;;6.60;81.40;;;;;;5074354;28;19971;-89
2023/03/13 06:06:49;;;;;;;;;;;6.70;81.20;;;;;;5073416;28;20408;-89
2023/03/13 06:09:15;;;;;;;;;;;6.70;81.10;;;;;;5084672;28;19942;-89
2023/03/13 06:11:40;;;;;;;;;;;6.80;81.20;;;;;;5074800;28;19954;-89
2023/03/13 06:14:06;;;;;;;;;;;6.90;81.10;;;;;;5078566;28;20072;-89
2023/03/13 06:16:31;;;;;;;;;;;6.90;81.10;;;;;;5087421;28;19947;-90
2023/03/13 06:18:57;;;;;;;;;;;6.90;81.20;;;;;;5082717;28;19992;-90
2023/03/13 06:21:22;;;;;;;;;;;6.90;82.00;;;;;;5088506;28;20011;-89
2023/03/13 06:23:48;;;;;;;;;;;6.80;82.60;;;;;;5087128;28;19971;-90
2023/03/13 06:26:13;;;;;;;;;;;6.80;83.30;;;;;;5062185;28;20023;-90
2023/03/13 06:28:39;;;;;;;;;;;6.70;82.90;;;;;;5089187;28;19941;-90
2023/03/13 06:31:05;;;;;;;;;;;6.80;82.80;;;;;;5079942;28;19942;-90
2023/03/13 06:33:31;;;;;;;;;;;6.80;83.20;;;;;;5083328;28;19977;-89
2023/03/13 06:35:58;;;;;;;;;;;6.80;82.70;;;;;;5085170;28;19971;-90
2023/03/13 06:38:24;;;;;;;;;;;6.90;83.00;;;;;;5073795;28;20474;-89
2023/03/13 06:40:49;;;;;;;;;;;6.80;82.90;;;;;;5082027;28;20031;-90
2023/03/13 06:43:15;;;;;;;;;;;7.10;81.40;;;;;;5080659;28;19997;-89
2023/03/13 06:45:40;;;;;;;;;;;7.20;81.70;;;;;;5076238;28;20395;-89
2023/03/13 06:48:06;;;;;;;;;;;7.40;81.50;;;;;;5074516;28;19957;-90
2023/03/13 06:50:31;;;;;;;;;;;7.40;80.80;;;;;;5076750;28;20032;-90
2023/03/13 06:52:57;;;;;;;;;;;7.40;81.70;;;;;;5081154;28;20059;-89
2023/03/13 06:55:23;;;;;;;;;;;7.50;82.90;;;;;;5067383;28;20402;-90
2023/03/13 06:57:49;;;;;;;;;;;7.40;81.80;;;;;;5060958;28;20016;-90
2023/03/13 07:00:15;;;;;;;;;;;7.40;81.80;;;;;;5084738;28;19970;-90
2023/03/13 07:02:41;;;;;;;;;;;7.50;81.30;;;;;;5076407;28;20386;-90
2023/03/13 07:05:07;;;;;;;;;;;7.70;81.30;;;;;;5108620;22;20504;-89
2023/03/13 07:07:32;;;;;;;;;;;7.70;80.40;;;;;;5103117;28;19945;-90
2023/03/13 07:09:58;;;;;;;;;;;7.70;80.90;;;;;;5106558;28;19995;-89
2023/03/13 07:12:24;;;;;;;;;;;8.00;81.40;;;;;;5106841;28;19950;-89
2023/03/13 07:14:49;;;;;;;;;;;8.20;81.30;;;;;;5109362;28;19943;-89
2023/03/13 07:17:15;;;;;;;;;;;8.20;81.10;;;;;;5112854;28;19985;-89
2023/03/13 07:19:40;;;;;;;;;;;8.30;81.50;;;;;;5112493;28;20054;-90
2023/03/13 07:22:06;;;;;;;;;;;8.40;81.20;;;;;;5112038;28;19991;-90
2023/03/13 07:24:31;;;;;;;;;;;8.40;81.10;;;;;;5110860;28;20025;-90
2023/03/13 07:26:57;;;;;;;;;;;8.40;80.00;;;;;;5113739;27;19940;-91
2023/03/13 07:29:22;;;;;;;;;;;8.40;79.80;;;;;;5103887;28;19953;-91
2023/03/13 07:31:48;;;;;;;;;;;8.50;80.30;;;;;;5107137;28;19949;-89
2023/03/13 07:34:13;;;;;;;;;;;8.60;79.80;;;;;;5107552;28;19947;-89
2023/03/13 07:36:40;;;;;;;;;;;8.60;79.70;;;;;;5116347;28;19945;-90
2023/03/13 07:39:06;;;;;;;;;;;8.70;78.40;;;;;;5093041;28;19947;-90
2023/03/13 07:41:32;;;;;;;;;;;8.90;78.80;;;;;;5110844;28;19949;-90
2023/03/13 07:43:57;;;;;;;;;;;9.10;78.40;;;;;;5110433;28;20066;-90
2023/03/13 07:46:23;;;;;;;;;;;9.40;77.50;;;;;;5110527;28;19993;-89
2023/03/13 07:48:49;;;;;;;;;;;9.90;76.70;;;;;;5096654;28;19969;-90
2023/03/13 07:51:16;;;;;;;;;;;10.00;75.50;;;;;;5113003;28;19950;-89
2023/03/13 07:53:42;;;;;;;;;;;10.10;75.20;;;;;;5116030;27;20011;-90
2023/03/13 07:56:11;;;;;;;;;;;10.40;75.20;;;;;;5117454;27;19991;-90
2023/03/13 07:58:37;;;;;;;;;;;10.60;73.80;;;;;;5109534;27;19942;-90
2023/03/13 08:01:12;;;;;;;;;;;10.60;74.00;;;;;;5100185;28;20415;-89
2023/03/13 08:03:38;;;;;;;;;;;10.40;74.40;;;;;;5101852;27;19970;-89
2023/03/13 08:06:05;;;;;;;;;;;10.40;75.00;;;;;;5109512;27;20290;-89
2023/03/13 08:08:30;;;;;;;;;;;10.50;75.50;;;;;;5108097;27;20092;-90
2023/03/13 08:11:00;;;;;;;;;;;10.40;75.90;;;;;;5106434;27;20014;-91
2023/03/13 08:13:25;;;;;;;;;;;10.60;76.10;;;;;;5109483;27;19963;-91
2023/03/13 08:15:51;;;;;;;;;;;10.80;76.00;;;;;;5110938;28;20459;-91
2023/03/13 08:18:16;;;;;;;;;;;11.10;75.60;;;;;;5103531;28;20432;-91
2023/03/13 08:20:42;;;;;;;;;;;11.10;75.20;;;;;;5109722;28;19950;-91
2023/03/13 08:23:07;;;;;;;;;;;11.40;74.30;;;;;;5106018;28;19948;-91
2023/03/13 08:25:33;;;;;;;;;;;11.70;73.30;;;;;;5108465;27;19961;-91
2023/03/13 08:27:58;;;;;;;;;;;11.80;72.70;;;;;;5107385;27;19951;-90
2023/03/13 08:30:24;;;;;;;;;;;11.90;72.30;;;;;;5104022;27;20393;-90
2023/03/13 08:32:49;;;;;;;;;;;11.90;71.60;;;;;;5102408;27;19944;-89
2023/03/13 08:35:15;;;;;;;;;;;11.90;72.00;;;;;;5110454;27;19954;-89
2023/03/13 08:37:41;;;;;;;;;;;11.90;71.30;;;;;;5120476;27;19940;-90
2023/03/13 08:40:10;;;;;;;;;;;11.70;72.10;;;;;;5094616;27;19987;-90
2023/03/13 08:42:36;;;;;;;;;;;11.70;72.80;;;;;;5088390;28;19941;-90
2023/03/13 08:45:01;;;;;;;;;;;11.80;72.60;;;;;;5101532;28;20014;-91
2023/03/13 08:47:27;;;;;;;;;;;11.90;72.60;;;;;;5102271;28;19993;-91
2023/03/13 08:49:54;;;;;;;;;;;12.20;72.50;;;;;;5106397;28;20024;-91
2023/03/13 08:52:19;;;;;;;;;;;12.40;71.20;;;;;;5083258;28;19966;-91
2023/03/13 08:54:47;;;;;;;;;;;12.80;69.90;;;;;;5105595;28;20368;-91
2023/03/13 08:57:12;;;;;;;;;;;12.90;68.70;;;;;;5098139;27;19947;-91
2023/03/13 08:59:38;;;;;;;;;;;13.10;68.20;;;;;;5091694;28;19943;-91
2023/03/13 09:02:03;;;;;;;;;;;13.10;67.70;;;;;;5114160;28;19952;-90
2023/03/13 09:04:29;;;;;;;;;;;13.20;67.60;;;;;;5101175;28;19976;-89
2023/03/13 09:06:54;;;;;;;;;;;13.10;66.90;;;;;;5093164;28;19947;-90
2023/03/13 09:09:20;;;;;;;;;;;13.00;66.50;;;;;;5094627;28;19943;-89
2023/03/13 09:11:45;;;;;;;;;;;12.90;67.10;;;;;;5086068;28;20057;-89
2023/03/13 09:14:11;;;;;;;;;;;12.80;67.80;;;;;;5090169;28;19944;-89
2023/03/13 09:16:36;;;;;;;;;;;12.70;68.40;;;;;;5068554;28;20421;-90
2023/03/13 09:19:03;;;;;;;;;;;12.70;68.00;;;;;;5084531;28;19943;-91
2023/03/13 09:21:30;;;;;;;;;;;13.00;68.00;;;;;;5086184;28;19983;-91
2023/03/13 09:23:56;;;;;;;;;;;13.20;67.60;;;;;;5088387;28;20020;-91
2023/03/13 09:26:22;;;;;;;;;;;13.30;67.20;;;;;;5078583;28;20075;-91
2023/03/13 09:28:48;;;;;;;;;;;13.40;65.80;;;;;;5084239;28;20048;-91
2023/03/13 09:31:15;;;;;;;;;;;13.70;64.50;;;;;;5087289;28;20433;-91
2023/03/13 09:33:41;;;;;;;;;;;13.90;62.50;;;;;;5092811;28;19947;-91
2023/03/13 09:36:07;;;;;;;;;;;14.00;63.30;;;;;;5083340;28;20027;-91
2023/03/13 09:38:33;;;;;;;;;;;14.10;61.40;;;;;;5071767;28;20046;-91
2023/03/13 09:41:10;;;;;;;;;;;14.40;60.90;;;;;;5081335;28;19947;-90
2023/03/13 09:43:36;;;;;;;;;;;14.40;60.70;;;;;;5087992;28;19965;-89
2023/03/13 09:46:03;;;;;;;;;;;14.10;59.80;;;;;;5077893;28;20445;-89
2023/03/13 09:48:28;;;;;;;;;;;13.90;60.20;;;;;;5083696;28;19945;-89
2023/03/13 09:50:57;;;;;;;;;;;13.90;61.30;;;;;;5076008;28;20001;-89
2023/03/13 09:53:43;;;;;;;;;;;13.90;61.40;;;;;;5079513;28;20037;-89
2023/03/13 09:56:13;;;;;;;;;;;14.00;62.20;;;;;;5067635;28;19988;-91
2023/03/13 09:58:40;;;;;;;;;;;14.00;58.80;;;;;;5065605;28;20414;-91
2023/03/13 10:01:08;;;;;;;;;;;14.20;58.40;;;;;;5089840;28;19953;-91
2023/03/13 10:03:54;;;;;;;;;;;14.50;57.60;;;;;;5084990;28;20471;-91
2023/03/13 10:06:21;;;;;;;;;;;14.80;57.10;;;;;;5082660;28;19956;-89
2023/03/13 10:08:47;;;;;;;;;;;15.10;56.20;;;;;;5077562;28;19954;-89
2023/03/13 10:11:21;;;;;;;;;;;15.20;56.30;;;;;;5071827;28;20023;-90
2023/03/13 10:13:52;;;;;;;;;;;15.10;57.00;;;;;;5074962;28;19943;-90
2023/03/13 10:16:44;;;;;;;;;;;15.30;56.20;;;;;;5071890;28;19952;-90
2023/03/13 10:19:11;;;;;;;;;;;15.30;54.20;;;;;;5038117;28;19945;-90
2023/03/13 10:21:37;;;;;;;;;;;15.40;54.30;;;;;;5086001;28;19952;-90
2023/03/13 10:24:23;;;;;;;;;;;15.40;55.10;;;;;;5082600;28;19960;-89
2023/03/13 10:26:49;;;;;;;;;;;15.40;55.10;;;;;;5079213;28;19955;-89
2023/03/13 10:29:22;;;;;;;;;;;15.20;53.30;;;;;;5082464;28;19947;-89
2023/03/13 10:31:53;;;;;;;;;;;15.10;54.40;;;;;;5078129;28;19954;-89
2023/03/13 10:34:18;;;;;;;;;;;15.10;53.30;;;;;;5080984;28;19997;-89
2023/03/13 10:36:46;;;;;;;;;;;15.20;52.50;;;;;;5085452;28;19989;-90
2023/03/13 10:39:16;;;;;;;;;;;15.40;51.70;;;;;;5088170;28;19942;-90
2023/03/13 10:41:41;;;;;;;;;;;15.70;51.80;;;;;;5075908;28;19944;-89
2023/03/13 10:44:18;;;;;;;;;;;16.00;51.20;;;;;;5079869;28;20393;-90
2023/03/13 10:46:45;;;;;;;;;;;16.20;51.20;;;;;;5096603;28;20054;-90
2023/03/13 10:49:14;;;;;;;;;;;16.50;51.30;;;;;;5082726;28;20283;-90
2023/03/13 10:51:43;;;;;;;;;;;16.70;48.70;;;;;;5086929;28;19985;-89
2023/03/13 10:54:13;;;;;;;;;;;16.80;46.40;;;;;;5077635;28;19958;-90
2023/03/13 10:56:38;;;;;;;;;;;16.90;45.80;;;;;;5078403;28;20016;-90
2023/03/13 10:59:15;;;;;;;;;;;16.80;46.10;;;;;;5083004;28;19952;-90
2023/03/13 11:01:41;;;;;;;;;;;16.90;46.30;;;;;;5087370;28;19945;-90
2023/03/13 11:04:25;;;;;;;;;;;16.80;46.50;;;;;;5080676;28;19979;-89
2023/03/13 11:06:53;;;;;;;;;;;16.60;45.70;;;;;;5084373;28;19968;-90
2023/03/13 11:09:19;;;;;;;;;;;16.20;47.90;;;;;;5085888;28;19997;-89
2023/03/13 11:11:46;;;;;;;;;;;15.80;48.00;;;;;;5092951;28;20362;-89
2023/03/13 11:14:16;;;;;;;;;;;15.80;49.20;;;;;;5091445;28;19947;-89
2023/03/13 11:16:56;;;;;;;;;;;16.00;46.80;;;;;;5093178;28;19940;-89
2023/03/13 11:19:41;;;;;;;;;;;16.50;44.10;;;;;;5092907;28;20381;-90
2023/03/13 11:22:06;;;;;;;;;;;16.90;43.00;;;;;;5092935;28;20152;-90
2023/03/13 11:24:51;;;;;;;;;;;17.10;43.60;;;;;;5092863;28;19967;-90
2023/03/13 11:27:27;;;;;;;;;;;17.30;42.30;;;;;;5093179;28;19941;-90
2023/03/13 11:30:10;;;;;;;;;;;17.20;40.90;;;;;;5073299;28;19953;-90
2023/03/13 11:32:46;;;;;;;;;;;17.40;41.40;;;;;;5074047;28;19943;-90
2023/03/13 11:35:30;;;;;;;;;;;17.70;41.80;;;;;;5092935;28;19995;-90
2023/03/13 11:37:58;;;;;;;;;;;17.60;41.30;;;;;;5092822;28;20400;-90
2023/03/13 11:40:39;;;;;;;;;;;17.50;42.10;;;;;;5092833;28;19973;-90
2023/03/13 11:43:04;;;;;;;;;;;17.40;43.20;;;;;;5092821;28;19939;-90
2023/03/13 11:45:32;;;;;;;;;;;17.20;41.70;;;;;;5092666;28;20483;-89
2023/03/13 11:47:58;;;;;;;;;;;17.00;41.40;;;;;;5092734;28;20001;-89
2023/03/13 11:50:36;;;;;;;;;;;16.80;44.20;;;;;;5092727;28;19937;-90
2023/03/13 11:53:16;;;;;;;;;;;16.60;44.70;;;;;;5092675;28;20014;-90
2023/03/13 11:55:42;;;;;;;;;;;16.70;44.70;;;;;;5092963;28;19991;-90
2023/03/13 11:58:26;;;;;;;;;;;16.70;42.50;;;;;;5087609;28;19945;-90
2023/03/13 12:00:51;;;;;;;;;;;16.80;42.70;;;;;;5074398;28;19945;-90
2023/03/13 12:03:34;;;;;;;;;;;17.30;42.10;;;;;;5075853;28;19975;-90
2023/03/13 12:06:02;;;;;;;;;;;17.60;41.40;;;;;;5077064;28;19950;-90
2023/03/13 12:08:27;;;;;;;;;;;17.90;40.50;;;;;;5096246;28;19988;-91
2023/03/13 12:11:11;;;;;;;;;;;18.30;39.30;;;;;;5096184;28;20413;-90
2023/03/13 12:13:39;;;;;;;;;;;18.50;39.20;;;;;;5096109;28;19978;-90
2023/03/13 12:16:24;;;;;;;;;;;18.90;38.60;;;;;;5094082;28;20218;-90
2023/03/13 12:18:51;;;;;;;;;;;19.20;39.20;;;;;;5085871;28;19955;-90
2023/03/13 12:21:17;;;;;;;;;;;19.50;38.40;;;;;;5093412;28;19950;-90
2023/03/13 12:23:46;;;;;;;;;;;19.30;37.90;;;;;;5083585;28;19957;-89
2023/03/13 12:26:11;;;;;;;;;;;19.40;37.80;;;;;;5073017;28;19945;-89
2023/03/13 12:28:43;;;;;;;;;;;19.30;37.70;;;;;;5090087;28;19948;-90
2023/03/13 12:31:08;;;;;;;;;;;19.30;38.30;;;;;;5080114;28;20049;-89
2023/03/13 12:33:41;;;;;;;;;;;19.50;38.30;;;;;;5065952;28;20021;-90
2023/03/13 12:36:10;;;;;;;;;;;20.30;39.10;;;;;;5085433;28;19982;-89
2023/03/13 12:39:04;;;;;;;;;;;20.80;36.90;;;;;;5082285;28;19948;-90
2023/03/13 12:41:34;;;;;;;;;;;21.30;36.00;;;;;;5001371;28;19964;-90
2023/03/13 12:44:00;;;;;;;;;;;21.60;35.90;;;;;;5087784;28;19963;-89
2023/03/13 12:46:35;;;;;;;;;;;21.80;35.70;;;;;;5071523;28;19998;-89
2023/03/13 12:49:09;;;;;;;;;;;21.40;35.30;;;;;;5086692;28;19986;-89
2023/03/13 12:51:44;;;;;;;;;;;21.70;34.50;;;;;;5088795;28;19943;-89
2023/03/13 12:54:12;;;;;;;;;;;22.00;33.70;;;;;;5091730;28;19958;-90
2023/03/13 12:56:50;;;;;;;;;;;23.60;31.80;;;;;;5092176;28;19952;-90
2023/03/13 12:59:42;;;;;;;;;;;23.90;29.20;;;;;;5093022;28;20002;-90
2023/03/13 13:02:24;;;;;;;;;;;24.20;29.20;;;;;;5085491;28;19952;-90
2023/03/13 13:04:52;;;;;;;;;;;24.20;28.50;;;;;;5083651;28;19987;-90
2023/03/13 13:07:18;;;;;;;;;;;24.80;28.70;;;;;;5090123;28;20001;-89
2023/03/13 13:10:23;;;;;;;;;;;24.40;29.00;;;;;;5071325;28;19951;-90
2023/03/13 13:13:07;;;;;;;;;;;23.40;30.50;;;;;;5007121;28;19950;-90
2023/03/13 13:15:33;;;;;;;;;;;23.30;32.90;;;;;;5001574;28;19950;-90
2023/03/13 13:18:01;;;;;;;;;;;23.60;32.00;;;;;;5057508;28;19944;-90
2023/03/13 13:20:29;;;;;;;;;;;23.70;32.90;;;;;;5090815;28;19940;-90
2023/03/13 13:22:55;;;;;;;;;;;24.40;30.90;;;;;;5092962;28;19952;-90
2023/03/13 13:25:23;;;;;;;;;;;24.50;30.70;;;;;;5088749;28;19966;-90
2023/03/13 13:27:49;;;;;;;;;;;24.80;30.00;;;;;;5090963;28;19945;-90
2023/03/13 13:30:18;;;;;;;;;;;24.10;32.30;;;;;;5092610;28;19940;-89
2023/03/13 13:32:48;;;;;;;;;;;23.20;34.30;;;;;;5091039;28;19953;-91
2023/03/13 13:35:22;;;;;;;;;;;22.30;35.30;;;;;;5088651;28;20000;-90
2023/03/13 13:37:48;;;;;;;;;;;21.60;35.90;;;;;;5068587;28;19941;-90
2023/03/13 13:40:14;;;;;;;;;;;20.90;37.90;;;;;;5084854;28;19952;-89
2023/03/13 13:42:47;;;;;;;;;;;20.60;37.20;;;;;;5083985;28;20399;-90
2023/03/13 13:45:15;;;;;;;;;;;20.60;37.30;;;;;;5084745;28;20063;-89
2023/03/13 13:47:42;;;;;;;;;;;20.70;37.00;;;;;;5084050;28;19948;-90
2023/03/13 13:50:18;;;;;;;;;;;20.90;37.00;;;;;;5080771;28;19945;-90
2023/03/13 13:52:44;;;;;;;;;;;21.20;37.50;;;;;;5087472;28;19959;-90
2023/03/13 13:55:25;;;;;;;;;;;21.40;37.80;;;;;;5071761;28;20390;-90
2023/03/13 13:58:10;;;;;;;;;;;21.80;36.20;;;;;;5090199;28;19959;-89
2023/03/13 14:00:44;;;;;;;;;;;21.70;36.30;;;;;;5090205;28;19940;-90
2023/03/13 14:03:18;;;;;;;;;;;21.70;37.30;;;;;;5083396;28;19951;-90
2023/03/13 14:05:45;;;;;;;;;;;22.60;36.60;;;;;;5080234;28;20030;-90
2023/03/13 14:08:22;;;;;;;;;;;23.40;35.50;;;;;;5080398;28;19949;-90
2023/03/13 14:11:03;;;;;;;;;;;24.00;32.80;;;;;;5061225;28;19951;-90
2023/03/13 14:13:29;;;;;;;;;;;24.40;31.80;;;;;;5074257;28;20437;-90
2023/03/13 14:15:54;;;;;;;;;;;23.40;32.80;;;;;;5076047;28;19981;-90
2023/03/13 14:18:27;;;;;;;;;;;24.10;33.10;;;;;;5079498;28;19988;-90
2023/03/13 14:20:56;;;;;;;;;;;25.20;31.20;;;;;;5083285;28;20025;-90
2023/03/13 14:23:33;;;;;;;;;;;26.10;29.70;;;;;;5079415;28;19985;-90
2023/03/13 14:26:07;;;;;;;;;;;25.30;29.80;;;;;;5064527;28;20402;-90
2023/03/13 14:28:33;;;;;;;;;;;26.00;29.40;;;;;;5088349;28;19944;-90